Time;durP1;ratioP1;P1;durP2;ratioP2;P2;SDS_P1;SDS_P2;PMS_P1;PMS_P2;Temp;Humidity;BMP_temperature;BMP_pressure;BME280_temperature;BME280_humidity;BME280_pressure;Samples;Min_cycle;Max_cycle;Signal;HPM_P1;HPM_P2
2023/04/19 00:00:43;;;;;;;19.20;14.40;;;;;;;8.48;100.00;96780.47;6151040;23;20020;-86
2023/04/19 00:03:09;;;;;;;17.70;12.47;;;;;;;8.57;100.00;96774.44;6150017;23;20824;-86
2023/04/19 00:05:37;;;;;;;19.27;13.63;;;;;;;8.33;100.00;96779.97;6151305;23;20614;-86
2023/04/19 00:08:06;;;;;;;20.30;13.47;;;;;;;8.47;100.00;96777.00;6150907;23;20017;-85
2023/04/19 00:10:32;;;;;;;20.17;13.80;;;;;;;8.44;100.00;96773.81;6151308;23;20073;-86
2023/04/19 00:12:57;;;;;;;17.13;12.93;;;;;;;8.39;100.00;96776.84;6149897;23;20005;-86
2023/04/19 00:15:23;;;;;;;17.93;12.83;;;;;;;8.50;100.00;96774.13;6174118;23;20004;-85
2023/04/19 00:17:48;;;;;;;17.77;13.13;;;;;;;8.45;100.00;96775.47;6151325;23;20021;-86
2023/04/19 00:20:14;;;;;;;19.03;13.37;;;;;;;8.41;100.00;96771.47;6150057;23;20441;-86
2023/04/19 00:22:40;;;;;;;20.00;14.07;;;;;;;8.47;100.00;96768.31;6175258;23;20009;-86
2023/04/19 00:25:06;;;;;;;19.60;13.73;;;;;;;8.55;100.00;96770.28;6150505;23;20441;-86
2023/04/19 00:27:32;;;;;;;22.30;14.20;;;;;;;8.50;100.00;96768.06;6151801;23;20457;-86
2023/04/19 00:29:58;;;;;;;20.17;13.70;;;;;;;8.48;100.00;96767.34;6150912;23;20028;-86
2023/04/19 00:32:24;;;;;;;18.47;13.77;;;;;;;8.52;100.00;96765.28;6149676;23;20305;-86
2023/04/19 00:34:50;;;;;;;17.33;12.20;;;;;;;8.59;100.00;96766.44;6151288;23;20013;-86
2023/04/19 00:37:16;;;;;;;17.77;13.20;;;;;;;8.60;100.00;96760.22;6150737;23;20009;-86
2023/04/19 00:39:42;;;;;;;19.00;13.93;;;;;;;8.38;100.00;96756.84;6151707;23;20013;-86
2023/04/19 00:42:22;;;;;;;17.73;13.47;;;;;;;8.44;100.00;96758.09;6149674;23;20353;-86
2023/04/19 00:44:48;;;;;;;17.83;13.00;;;;;;;8.39;100.00;96752.44;6150805;23;20017;-85
2023/04/19 00:47:14;;;;;;;17.97;13.30;;;;;;;8.38;100.00;96750.75;6150612;23;20063;-86
2023/04/19 00:49:40;;;;;;;18.27;12.97;;;;;;;8.39;100.00;96755.06;6151329;23;20364;-86
2023/04/19 00:52:07;;;;;;;17.27;13.57;;;;;;;8.49;100.00;96753.31;6150514;23;20013;-85
2023/04/19 00:54:36;;;;;;;19.83;13.13;;;;;;;8.41;100.00;96750.50;6152288;23;20013;-86
2023/04/19 00:57:02;;;;;;;20.40;13.00;;;;;;;8.41;100.00;96753.13;6162103;23;20008;-86
2023/04/19 00:59:29;;;;;;;16.87;12.40;;;;;;;8.42;100.00;96754.81;6159103;23;20392;-86
2023/04/19 01:01:55;;;;;;;20.00;14.43;;;;;;;8.47;100.00;96757.84;6171278;23;20097;-86
2023/04/19 01:04:21;;;;;;;19.27;13.43;;;;;;;8.46;100.00;96745.72;6150443;23;20032;-86
2023/04/19 01:06:47;;;;;;;19.83;14.07;;;;;;;8.43;100.00;96749.41;6150779;23;20036;-86
2023/04/19 01:09:13;;;;;;;19.27;13.80;;;;;;;8.41;100.00;96745.25;6150165;23;20028;-85
2023/04/19 01:11:40;;;;;;;18.30;13.60;;;;;;;8.54;100.00;96751.09;6150623;23;20553;-86
2023/04/19 01:14:07;;;;;;;19.77;13.23;;;;;;;8.55;100.00;96744.91;6151440;23;20444;-86
2023/04/19 01:16:33;;;;;;;18.97;13.80;;;;;;;8.43;100.00;96736.31;6151106;23;20093;-86
2023/04/19 01:18:59;;;;;;;17.13;13.10;;;;;;;8.47;100.00;96735.06;6151056;23;20037;-86
2023/04/19 01:21:25;;;;;;;17.97;13.77;;;;;;;8.47;100.00;96737.69;6150452;23;20016;-85
2023/04/19 01:23:51;;;;;;;19.10;13.33;;;;;;;8.57;100.00;96736.91;6151174;23;20017;-85
2023/04/19 01:26:17;;;;;;;20.50;14.67;;;;;;;8.61;100.00;96728.63;6151470;23;20376;-85
2023/04/19 01:28:42;;;;;;;21.27;15.40;;;;;;;8.48;100.00;96735.91;6151317;23;20028;-86
2023/04/19 01:31:08;;;;;;;19.47;14.77;;;;;;;8.46;100.00;96729.97;6150413;23;20020;-86
2023/04/19 01:33:35;;;;;;;18.47;13.80;;;;;;;8.29;100.00;96727.97;6150985;23;20013;-86
2023/04/19 01:36:01;;;;;;;19.57;14.47;;;;;;;8.34;100.00;96720.53;6150924;23;20036;-86
2023/04/19 01:38:27;;;;;;;19.73;14.33;;;;;;;8.25;100.00;96719.53;6175275;23;20009;-86
2023/04/19 01:40:52;;;;;;;17.97;13.93;;;;;;;8.31;100.00;96716.38;6150337;23;20087;-85
2023/04/19 01:43:18;;;;;;;20.47;14.33;;;;;;;8.23;100.00;96718.84;6150629;23;20021;-85
2023/04/19 01:45:44;;;;;;;20.33;15.37;;;;;;;8.37;100.00;96712.41;6150206;23;20025;-86
2023/04/19 01:48:10;;;;;;;20.47;14.57;;;;;;;8.21;100.00;96715.50;6150999;23;20021;-85
2023/04/19 01:50:36;;;;;;;19.50;14.37;;;;;;;8.36;100.00;96706.34;6176148;23;20487;-86
2023/04/19 01:53:03;;;;;;;22.67;15.43;;;;;;;8.27;100.00;96713.19;6175288;23;20374;-86
2023/04/19 01:55:29;;;;;;;19.93;14.50;;;;;;;8.05;100.00;96716.03;6151329;23;20013;-86
2023/04/19 01:58:00;;;;;;;21.03;16.27;;;;;;;8.16;100.00;96705.44;6151650;23;20013;-86
2023/04/19 02:00:27;;;;;;;15.70;10.77;;;;;;;8.09;100.00;96706.09;6175087;23;20019;-85
2023/04/19 02:02:53;;;;;;;24.50;16.20;;;;;;;8.16;100.00;96709.84;6154220;23;20013;-86
2023/04/19 02:05:18;;;;;;;19.53;14.20;;;;;;;8.04;100.00;96703.88;6153988;23;20013;-86
2023/04/19 02:07:44;;;;;;;22.27;15.03;;;;;;;8.08;100.00;96696.56;6154332;23;20376;-86
2023/04/19 02:10:10;;;;;;;23.37;15.27;;;;;;;8.12;100.00;96695.38;6154902;23;20008;-86
2023/04/19 02:12:36;;;;;;;24.70;15.97;;;;;;;8.11;100.00;96698.94;6154434;23;20009;-86
2023/04/19 02:15:02;;;;;;;21.00;14.77;;;;;;;8.07;100.00;96698.38;6154307;23;20349;-86
2023/04/19 02:17:33;;;;;;;20.20;14.90;;;;;;;8.09;100.00;96693.84;6155057;23;20300;-86
2023/04/19 02:19:59;;;;;;;22.67;15.30;;;;;;;8.16;100.00;96689.72;6154337;23;20016;-86
2023/04/19 02:22:25;;;;;;;24.10;15.87;;;;;;;8.28;100.00;96690.44;6129212;23;20361;-86
2023/04/19 02:24:51;;;;;;;20.03;13.90;;;;;;;8.01;100.00;96685.78;6153987;23;20013;-86
2023/04/19 02:27:17;;;;;;;22.03;15.33;;;;;;;8.19;100.00;96681.59;6154113;23;20013;-86
2023/04/19 02:29:43;;;;;;;21.50;15.00;;;;;;;8.18;100.00;96679.09;6154466;23;20017;-86
2023/04/19 02:32:10;;;;;;;22.47;15.60;;;;;;;8.13;100.00;96679.50;6124038;23;20513;-86
2023/04/19 02:34:37;;;;;;;20.33;14.87;;;;;;;8.22;100.00;96683.97;6152939;23;20071;-86
2023/04/19 02:37:02;;;;;;;21.43;15.17;;;;;;;8.23;100.00;96679.53;6167090;23;20714;-86
2023/04/19 02:39:28;;;;;;;21.17;14.50;;;;;;;8.12;100.00;96672.63;6165781;23;20433;-86
2023/04/19 02:41:54;;;;;;;21.13;15.43;;;;;;;8.03;100.00;96682.09;6154407;23;20013;-86
2023/04/19 02:44:20;;;;;;;22.43;15.43;;;;;;;8.07;100.00;96674.78;6154765;23;20099;-85
2023/04/19 02:46:52;;;;;;;20.87;14.83;;;;;;;8.04;100.00;96677.69;6173180;23;20029;-86
2023/04/19 02:49:19;;;;;;;21.70;14.53;;;;;;;7.94;100.00;96675.00;6154038;23;20016;-86
2023/04/19 02:51:45;;;;;;;22.63;15.90;;;;;;;7.90;100.00;96680.66;6155469;23;20023;-86
2023/04/19 02:54:12;;;;;;;19.50;13.80;;;;;;;7.96;100.00;96677.53;6156323;23;20040;-86
2023/04/19 02:56:39;;;;;;;22.07;14.03;;;;;;;7.99;100.00;96677.25;6156243;23;20163;-86
2023/04/19 02:59:05;;;;;;;23.17;14.30;;;;;;;8.01;100.00;96672.69;6181502;23;20013;-86
2023/04/19 03:01:32;;;;;;;19.87;13.93;;;;;;;7.96;100.00;96675.72;6158751;23;20027;-86
2023/04/19 03:04:00;;;;;;;18.83;13.60;;;;;;;7.91;100.00;96671.84;6154362;23;20060;-86
2023/04/19 03:06:26;;;;;;;21.60;15.20;;;;;;;7.87;100.00;96665.22;6154148;23;20628;-86
2023/04/19 03:08:51;;;;;;;20.20;15.10;;;;;;;7.91;100.00;96667.41;6152886;23;20005;-86
2023/04/19 03:11:18;;;;;;;21.03;15.47;;;;;;;7.91;100.00;96666.59;6152264;23;20020;-86
2023/04/19 03:13:44;;;;;;;17.63;13.07;;;;;;;7.83;100.00;96667.25;6175705;23;20017;-86
2023/04/19 03:16:11;;;;;;;19.37;14.23;;;;;;;7.88;100.00;96666.84;6177818;23;20019;-85
2023/04/19 03:18:38;;;;;;;19.40;14.83;;;;;;;7.83;100.00;96669.88;6153396;23;20433;-86
2023/04/19 03:21:07;;;;;;;19.90;14.20;;;;;;;7.96;100.00;96661.81;6152714;23;20346;-86
2023/04/19 03:23:41;;;;;;;18.87;13.37;;;;;;;7.81;100.00;96658.69;6154226;23;20040;-86
2023/04/19 03:26:08;;;;;;;23.67;15.27;;;;;;;7.73;100.00;96664.59;6152837;23;20023;-86
2023/04/19 03:28:41;;;;;;;21.30;14.02;;;;;;;7.76;100.00;96653.88;6178041;23;20013;-86
2023/04/19 03:31:21;;;;;;;21.07;14.47;;;;;;;7.63;100.00;96657.66;6155178;23;20040;-86
2023/04/19 03:33:49;;;;;;;20.37;14.30;;;;;;;7.56;100.00;96655.56;6153959;23;20037;-86
2023/04/19 03:36:16;;;;;;;21.43;14.13;;;;;;;7.57;100.00;96659.00;6154495;23;20345;-86
2023/04/19 03:38:44;;;;;;;20.60;14.70;;;;;;;7.55;100.00;96655.72;6160720;23;20024;-86
2023/04/19 03:41:25;;;;;;;20.03;14.23;;;;;;;7.54;100.00;96649.66;6198738;23;20041;-86
2023/04/19 03:44:03;;;;;;;21.70;14.77;;;;;;;7.61;100.00;96647.31;6177411;23;20009;-85
2023/04/19 03:46:31;;;;;;;22.47;15.10;;;;;;;7.53;100.00;96647.16;6195219;23;20080;-86
2023/04/19 03:48:58;;;;;;;20.40;14.67;;;;;;;7.62;100.00;96640.31;6154013;23;20444;-86
2023/04/19 03:51:25;;;;;;;21.13;15.10;;;;;;;7.67;100.00;96638.13;6152039;23;20019;-86
2023/04/19 03:53:51;;;;;;;32.50;16.67;;;;;;;7.70;100.00;96646.53;6153999;23;20013;-85
2023/04/19 03:56:18;;;;;;;20.60;14.60;;;;;;;7.64;100.00;96639.19;6144834;23;20206;-86
2023/04/19 03:58:43;;;;;;;21.70;14.23;;;;;;;7.36;100.00;96645.97;6153198;23;20019;-85
2023/04/19 04:01:20;;;;;;;19.90;13.70;;;;;;;7.50;100.00;96642.16;6151376;23;20429;-86
2023/04/19 04:03:46;;;;;;;20.13;14.17;;;;;;;7.67;100.00;96640.72;6151089;23;20033;-85
2023/04/19 04:06:12;;;;;;;19.07;14.03;;;;;;;7.70;100.00;96635.25;6177049;23;20329;-86
2023/04/19 04:08:39;;;;;;;22.77;14.03;;;;;;;7.73;100.00;96651.50;6153344;23;20079;-85
2023/04/19 04:11:04;;;;;;;21.67;14.70;;;;;;;7.73;100.00;96645.44;6176428;23;20019;-86
2023/04/19 04:13:30;;;;;;;20.73;14.37;;;;;;;7.90;100.00;96649.22;6152494;23;20012;-86
2023/04/19 04:16:18;;;;;;;19.83;13.47;;;;;;;8.02;100.00;96646.38;6156943;23;20341;-86
2023/04/19 04:18:44;;;;;;;19.73;13.03;;;;;;;7.93;100.00;96641.94;6157714;23;20441;-86
2023/04/19 04:21:13;;;;;;;19.40;13.93;;;;;;;7.95;100.00;96654.91;6152586;23;20463;-85
2023/04/19 04:23:41;;;;;;;21.43;12.87;;;;;;;7.90;100.00;96652.69;6153009;23;20013;-85
2023/04/19 04:26:12;;;;;;;19.43;13.17;;;;;;;7.88;100.00;96645.91;6152959;23;20009;-85
2023/04/19 04:29:13;;;;;;;20.07;13.50;;;;;;;7.85;100.00;96648.81;6117650;23;20377;-92
2023/04/19 04:31:41;;;;;;;20.13;14.63;;;;;;;7.80;100.00;96651.81;6181192;23;20029;-92
2023/04/19 04:34:08;;;;;;;20.17;14.03;;;;;;;7.66;100.00;96657.41;6181165;23;20360;-93
2023/04/19 04:36:36;;;;;;;20.20;13.47;;;;;;;7.86;100.00;96658.31;6159451;23;20017;-92
2023/04/19 04:39:03;;;;;;;20.37;14.23;;;;;;;7.82;100.00;96651.69;6179460;23;20016;-92
2023/04/19 04:44:03;;;;;;;19.70;14.07;;;;;;;7.71;100.00;96650.84;6179536;23;20024;-83
2023/04/19 05:25:01;;;;;;;21.00;14.03;;;;;;;8.23;100.00;96641.06;6034041;23;20323;-93
2023/04/19 10:06:18;;;;;;;13.73;10.97;;;;;;;11.86;100.00;96476.56;6190859;23;20016;-95
2023/04/19 10:09:27;;;;;;;15.13;10.40;;;;;;;11.55;100.00;96486.81;6078120;23;20030;-94
2023/04/19 10:27:10;;;;;;;16.87;11.00;;;;;;;11.06;100.00;96476.03;6185874;23;20048;-93
2023/04/19 11:17:26;;;;;;;23.27;15.47;;;;;;;9.34;100.00;96482.38;6180943;23;20028;-87
2023/04/19 11:20:06;;;;;;;21.53;15.40;;;;;;;9.11;100.00;96481.09;6153084;23;20204;-86
2023/04/19 11:22:33;;;;;;;25.93;16.57;;;;;;;9.22;100.00;96475.66;6152321;23;20021;-83
2023/04/19 11:25:10;;;;;;;24.00;15.33;;;;;;;9.37;100.00;96462.88;6177832;23;20021;-86
2023/04/19 11:27:37;;;;;;;21.87;15.83;;;;;;;9.49;100.00;96471.38;6153017;23;20041;-86
2023/04/19 11:30:15;;;;;;;22.37;15.67;;;;;;;8.96;100.00;96472.88;6153272;23;20352;-86
2023/04/19 11:32:51;;;;;;;24.17;16.53;;;;;;;9.18;100.00;96469.88;6159292;23;20421;-86
2023/04/19 11:35:22;;;;;;;24.17;17.27;;;;;;;9.17;100.00;96470.03;6153841;23;20017;-86
2023/04/19 11:37:48;;;;;;;23.47;16.40;;;;;;;9.01;100.00;96467.19;6153452;23;20103;-86
2023/04/19 11:40:16;;;;;;;24.93;16.97;;;;;;;8.98;100.00;96463.88;6153048;23;20009;-86
2023/04/19 11:42:41;;;;;;;23.43;17.57;;;;;;;8.92;100.00;96466.22;6157587;23;20121;-85
2023/04/19 11:45:09;;;;;;;26.03;18.40;;;;;;;8.83;100.00;96465.31;6163645;23;20013;-86
2023/04/19 11:47:45;;;;;;;24.97;18.43;;;;;;;9.01;100.00;96464.56;6155759;23;20016;-86
2023/04/19 11:50:37;;;;;;;23.17;17.90;;;;;;;8.97;100.00;96466.66;6150276;23;20066;-86
2023/04/19 11:53:15;;;;;;;24.50;16.43;;;;;;;8.79;100.00;96457.88;6176833;23;20017;-86
2023/04/19 11:55:43;;;;;;;26.07;17.67;;;;;;;8.86;100.00;96466.84;6153568;23;20017;-86
2023/04/19 11:58:24;;;;;;;20.53;16.50;;;;;;;8.69;100.00;96455.28;6152575;23;20013;-86
2023/04/19 12:00:50;;;;;;;23.50;17.40;;;;;;;8.32;100.00;96455.19;6151172;23;20025;-86
2023/04/19 12:03:19;;;;;;;25.33;17.47;;;;;;;8.53;100.00;96453.25;6151187;23;20424;-86
2023/04/19 12:05:56;;;;;;;23.43;17.23;;;;;;;8.51;100.00;96457.78;6152434;23;20020;-86
2023/04/19 12:08:33;;;;;;;23.83;18.53;;;;;;;8.76;100.00;96455.53;6152484;23;20100;-85
2023/04/19 12:11:02;;;;;;;25.60;18.27;;;;;;;8.82;100.00;96452.31;6176001;23;20052;-85
2023/04/19 12:13:28;;;;;;;22.40;16.67;;;;;;;8.83;100.00;96446.13;6152168;23;20008;-86
2023/04/19 12:15:53;;;;;;;20.67;16.03;;;;;;;8.92;100.00;96456.59;6151576;23;20088;-85
2023/04/19 12:18:19;;;;;;;22.40;15.80;;;;;;;8.64;100.00;96447.81;6151136;23;20021;-85
2023/04/19 12:20:46;;;;;;;18.73;13.83;;;;;;;8.56;100.00;96447.72;6175738;23;20005;-85
2023/04/19 12:23:14;;;;;;;18.47;13.93;;;;;;;8.72;100.00;96442.72;6151517;23;20020;-85
2023/04/19 12:25:40;;;;;;;18.20;13.83;;;;;;;8.84;100.00;96437.28;6177319;23;20017;-90
2023/04/19 12:28:06;;;;;;;21.60;14.30;;;;;;;8.72;100.00;96432.22;6179110;23;20071;-90
2023/04/19 12:30:32;;;;;;;17.40;12.73;;;;;;;9.08;100.00;96442.84;6156897;23;20013;-90
2023/04/19 12:32:58;;;;;;;19.40;14.60;;;;;;;8.96;100.00;96436.97;6153723;23;20009;-89
2023/04/19 12:35:29;;;;;;;18.87;13.30;;;;;;;8.92;100.00;96438.25;6154384;23;20029;-90
2023/04/19 12:37:58;;;;;;;19.30;14.67;;;;;;;8.98;100.00;96436.81;6153814;23;20017;-89
2023/04/19 12:40:25;;;;;;;16.87;12.67;;;;;;;8.93;100.00;96433.81;6153602;23;20020;-90
2023/04/19 12:42:51;;;;;;;19.03;13.83;;;;;;;8.62;100.00;96430.59;6153278;23;20019;-90
2023/04/19 12:45:19;;;;;;;18.83;13.60;;;;;;;8.89;100.00;96432.47;6154557;23;20020;-88
2023/04/19 12:47:46;;;;;;;18.37;13.07;;;;;;;8.95;100.00;96431.84;6178462;23;20464;-90
2023/04/19 12:50:15;;;;;;;18.60;13.10;;;;;;;9.00;100.00;96429.63;6153118;23;20032;-91
2023/04/19 12:52:41;;;;;;;17.73;13.80;;;;;;;9.12;100.00;96431.13;6177717;23;20019;-90
2023/04/19 12:55:08;;;;;;;18.33;13.63;;;;;;;9.12;100.00;96433.75;6153407;23;20468;-90
2023/04/19 12:57:33;;;;;;;19.03;13.57;;;;;;;9.08;100.00;96428.91;6153210;23;20021;-89
2023/04/19 12:59:59;;;;;;;17.90;12.73;;;;;;;9.02;100.00;96422.47;6153416;23;20100;-90
2023/04/19 13:02:25;;;;;;;17.87;11.83;;;;;;;8.89;100.00;96419.34;6152861;23;20059;-90
2023/04/19 13:04:51;;;;;;;17.90;13.37;;;;;;;9.06;100.00;96418.56;6154076;23;20013;-90
2023/04/19 13:07:17;;;;;;;18.47;13.60;;;;;;;9.00;100.00;96419.16;6153116;23;20037;-90
2023/04/19 13:09:42;;;;;;;19.60;14.10;;;;;;;9.06;100.00;96418.56;6127454;23;20063;-90
2023/04/19 13:12:08;;;;;;;17.67;13.23;;;;;;;8.90;100.00;96424.44;6153204;23;20048;-90
2023/04/19 13:14:34;;;;;;;16.27;12.30;;;;;;;9.23;100.00;96418.78;6152957;23;20026;-90
2023/04/19 13:17:00;;;;;;;18.60;13.30;;;;;;;9.04;100.00;96415.25;6128316;23;20344;-90
2023/04/19 13:19:26;;;;;;;17.37;11.80;;;;;;;9.28;100.00;96406.03;6153751;23;20017;-79
2023/04/19 13:21:51;;;;;;;16.10;12.03;;;;;;;9.51;100.00;96401.19;6177632;23;20013;-91
2023/04/19 13:24:17;;;;;;;15.83;12.07;;;;;;;9.54;100.00;96398.28;6128148;23;20072;-92
2023/04/19 13:26:46;;;;;;;16.10;11.63;;;;;;;9.59;100.00;96388.13;6155476;23;20017;-92
2023/04/19 13:29:12;;;;;;;17.13;11.93;;;;;;;9.20;100.00;96391.03;6163172;23;20015;-92
2023/04/19 13:31:38;;;;;;;13.80;11.03;;;;;;;9.46;100.00;96383.28;6177195;23;20017;-91
2023/04/19 13:34:04;;;;;;;21.20;13.77;;;;;;;9.21;100.00;96387.41;6128674;23;20032;-92
2023/04/19 13:36:30;;;;;;;19.13;13.73;;;;;;;9.48;100.00;96381.31;6151474;23;20448;-92
2023/04/19 13:38:55;;;;;;;16.33;11.80;;;;;;;9.60;100.00;96374.88;6151552;23;20048;-92
2023/04/19 13:41:21;;;;;;;15.97;11.37;;;;;;;9.57;100.00;96367.28;6127812;23;20013;-91
2023/04/19 13:43:47;;;;;;;20.83;15.80;;;;;;;9.71;100.00;96362.50;6154029;23;20080;-92
2023/04/19 13:46:13;;;;;;;19.30;13.67;;;;;;;9.90;100.00;96351.81;6153718;23;20348;-92
2023/04/19 13:48:39;;;;;;;16.33;11.23;;;;;;;10.20;100.00;96349.75;6154278;23;20021;-91
2023/04/19 13:51:05;;;;;;;20.77;13.87;;;;;;;10.40;100.00;96351.22;6151928;23;20008;-91
2023/04/19 13:53:31;;;;;;;22.37;12.07;;;;;;;10.13;100.00;96349.53;6152498;23;20084;-91
2023/04/19 13:55:57;;;;;;;18.40;12.30;;;;;;;10.38;100.00;96348.72;6153432;23;20104;-92
2023/04/19 13:58:23;;;;;;;25.27;17.07;;;;;;;10.21;100.00;96346.97;6155306;23;20009;-92
2023/04/19 14:00:50;;;;;;;18.33;12.67;;;;;;;10.25;100.00;96344.84;6153474;23;20036;-91
2023/04/19 14:03:16;;;;;;;16.90;11.30;;;;;;;10.09;100.00;96343.78;6152258;23;20025;-91
2023/04/19 14:05:42;;;;;;;13.43;9.87;;;;;;;10.26;100.00;96343.88;6152279;23;20016;-92
2023/04/19 14:08:08;;;;;;;13.33;10.00;;;;;;;10.36;100.00;96342.81;6153597;23;20012;-92
2023/04/19 14:10:35;;;;;;;15.27;11.10;;;;;;;10.50;100.00;96349.31;6153350;23;20013;-92
2023/04/19 14:13:01;;;;;;;15.80;9.93;;;;;;;10.43;100.00;96334.28;6152959;23;20353;-92
2023/04/19 14:15:28;;;;;;;17.13;11.90;;;;;;;10.42;100.00;96344.00;6153991;23;20436;-91
2023/04/19 14:18:00;;;;;;;12.70;9.63;;;;;;;10.24;100.00;96335.31;6178403;23;20013;-92
2023/04/19 14:20:26;;;;;;;18.30;11.00;;;;;;;10.36;100.00;96332.31;6153544;23;20017;-91
2023/04/19 14:22:54;;;;;;;15.73;11.43;;;;;;;10.71;100.00;96321.81;6161909;23;20020;-92
2023/04/19 14:25:20;;;;;;;17.80;12.10;;;;;;;10.93;100.00;96323.03;6153867;23;20091;-91
2023/04/19 14:27:47;;;;;;;26.77;18.80;;;;;;;10.90;100.00;96313.66;6153539;23;20568;-92
2023/04/19 14:30:14;;;;;;;15.13;11.50;;;;;;;11.03;100.00;96316.66;6154180;23;20017;-92
2023/04/19 14:32:40;;;;;;;16.43;12.13;;;;;;;11.20;100.00;96308.78;6153518;23;20017;-92
2023/04/19 14:55:03;;;;;;;13.67;9.97;;;;;;;11.69;100.00;96275.44;5921339;24;20061;-86
2023/04/19 15:07:20;;;;;;;13.45;9.32;;;;;;;12.41;100.00;96256.25;5940063;24;20024;-87
2023/04/19 15:09:54;;;;;;;12.13;9.47;;;;;;;12.25;100.00;96254.47;6051662;23;20063;-86
2023/04/19 15:12:20;;;;;;;15.00;9.43;;;;;;;12.30;100.00;96261.88;6153645;23;20191;-86
2023/04/19 15:14:49;;;;;;;14.10;9.07;;;;;;;12.17;100.00;96260.59;6181303;23;20044;-84
2023/04/19 15:17:18;;;;;;;14.43;8.77;;;;;;;11.96;100.00;96261.13;6133262;23;20001;-82
2023/04/19 15:19:45;;;;;;;12.73;8.73;;;;;;;11.94;100.00;96257.03;6181486;23;20059;-83
2023/04/19 15:22:16;;;;;;;13.87;8.77;;;;;;;11.66;100.00;96257.31;6200400;23;20013;-82
2023/04/19 15:24:42;;;;;;;13.33;8.17;;;;;;;11.90;100.00;96255.69;6178283;23;20060;-82
2023/04/19 15:27:15;;;;;;;11.30;7.40;;;;;;;11.80;100.00;96242.66;6179294;23;20112;-82
2023/04/19 15:29:41;;;;;;;10.75;6.60;;;;;;;11.89;100.00;96248.78;6155716;23;20071;-82
2023/04/19 15:32:10;;;;;;;7.57;3.23;;;;;;;11.62;100.00;96236.75;6155168;23;20120;-82
2023/04/19 15:34:36;;;;;;;4.33;2.23;;;;;;;11.62;100.00;96242.03;6157008;23;20043;-82
2023/04/19 15:37:04;;;;;;;3.20;1.67;;;;;;;11.64;100.00;96240.88;6180833;23;20381;-82
2023/04/19 15:39:30;;;;;;;4.90;1.80;;;;;;;11.40;100.00;96244.34;6180603;23;20032;-82
2023/04/19 15:41:55;;;;;;;4.43;2.03;;;;;;;11.51;100.00;96233.47;6155459;23;20013;-82
2023/04/19 15:44:21;;;;;;;4.70;2.20;;;;;;;11.62;100.00;96236.75;6180013;23;20013;-82
2023/04/19 15:46:47;;;;;;;5.60;3.03;;;;;;;11.64;100.00;96240.06;6180852;23;20013;-82
2023/04/19 15:49:12;;;;;;;5.90;2.83;;;;;;;11.33;100.00;96238.91;6155358;23;20009;-82
2023/04/19 15:51:38;;;;;;;4.33;1.93;;;;;;;11.37;95.86;96241.19;6154698;23;20052;-82
2023/04/19 15:54:04;;;;;;;4.93;1.90;;;;;;;11.07;93.85;96227.69;6195531;23;19993;-82
2023/04/19 15:56:30;;;;;;;5.80;2.13;;;;;;;11.35;93.99;96233.47;6128416;23;20092;-82
2023/04/19 15:58:56;;;;;;;4.27;1.90;;;;;;;11.12;90.60;96232.44;6202571;23;20040;-82
2023/04/19 16:01:22;;;;;;;4.10;1.70;;;;;;;11.23;90.95;96232.13;6152577;23;20023;-82
2023/04/19 16:03:50;;;;;;;2.70;1.50;;;;;;;11.22;94.07;96233.13;6177236;23;20020;-82
2023/04/19 16:06:16;;;;;;;4.70;1.80;;;;;;;11.18;93.75;96219.47;6153486;23;20005;-82
2023/04/19 16:08:42;;;;;;;4.07;1.97;;;;;;;11.23;92.91;96234.75;6153355;23;20770;-83
2023/04/19 16:11:08;;;;;;;4.27;2.20;;;;;;;11.34;96.30;96229.19;6178975;23;20009;-82
2023/04/19 16:13:41;;;;;;;4.17;2.50;;;;;;;11.36;95.75;96240.38;6154347;23;20618;-83
2023/04/19 16:16:07;;;;;;;4.53;1.98;;;;;;;11.46;98.37;96243.66;6178714;23;20021;-83
2023/04/19 16:18:33;;;;;;;4.00;1.60;;;;;;;11.20;96.09;96235.09;6154194;23;20013;-82
2023/04/19 16:20:58;;;;;;;4.13;1.67;;;;;;;11.25;95.92;96235.44;6155552;23;20009;-85
2023/04/19 16:23:24;;;;;;;3.40;1.50;;;;;;;11.16;98.53;96246.94;6182404;23;20466;-87
2023/04/19 16:25:50;;;;;;;5.30;1.77;;;;;;;11.08;98.36;96235.41;6164052;23;20013;-86
2023/04/19 16:28:17;;;;;;;3.17;1.63;;;;;;;11.04;99.55;96238.53;6190085;23;20047;-85
2023/04/19 16:30:46;;;;;;;3.00;1.50;;;;;;;11.08;100.00;96243.31;6185375;23;20064;-85
2023/04/19 16:33:14;;;;;;;3.10;1.40;;;;;;;11.13;100.00;96244.63;6179898;23;20005;-86
2023/04/19 16:35:44;;;;;;;3.10;1.73;;;;;;;11.10;100.00;96243.16;6154760;23;20020;-86
2023/04/19 16:38:09;;;;;;;5.87;1.97;;;;;;;10.96;100.00;96249.03;6155803;23;20100;-85
2023/04/19 16:40:35;;;;;;;4.77;1.63;;;;;;;10.74;98.01;96248.66;6179965;23;20013;-85
2023/04/19 16:43:01;;;;;;;5.37;1.53;;;;;;;10.81;100.00;96249.66;6154634;23;20508;-85
2023/04/19 16:45:26;;;;;;;4.73;1.83;;;;;;;10.56;100.00;96253.19;6180219;23;20009;-85
2023/04/19 16:47:52;;;;;;;2.90;1.40;;;;;;;10.34;100.00;96244.88;6156829;23;20013;-85
2023/04/19 16:50:28;;;;;;;4.90;1.77;;;;;;;10.31;100.00;96252.25;6182118;23;20008;-87
2023/04/19 16:52:56;;;;;;;2.73;1.37;;;;;;;10.04;100.00;96248.81;6133566;23;20024;-87
2023/04/19 16:55:32;;;;;;;4.57;1.40;;;;;;;10.11;100.00;96259.50;6157389;23;20112;-87
2023/04/19 16:58:17;;;;;;;3.13;1.73;;;;;;;10.09;100.00;96257.06;6182275;23;20074;-90
2023/04/19 17:04:46;;;;;;;3.93;2.13;;;;;;;9.86;100.00;96253.31;6200809;23;20093;-92
2023/04/19 17:07:19;;;;;;;6.53;2.00;;;;;;;9.77;100.00;96254.22;6175538;23;20076;-89
2023/04/19 17:10:05;;;;;;;6.40;2.15;;;;;;;9.70;100.00;96253.19;6160839;23;20020;-88
2023/04/19 17:12:31;;;;;;;7.27;2.30;;;;;;;9.55;100.00;96258.97;6158119;23;20051;-87
2023/04/19 17:14:57;;;;;;;5.13;2.17;;;;;;;9.58;100.00;96250.78;6181875;23;20009;-89
2023/04/19 17:17:25;;;;;;;9.50;3.10;;;;;;;9.58;100.00;96255.22;6181257;23;20419;-88
2023/04/19 17:19:55;;;;;;;4.40;1.93;;;;;;;9.46;100.00;96265.16;6182616;23;20044;-88
2023/04/19 17:22:25;;;;;;;6.10;2.87;;;;;;;9.34;100.00;96263.72;6157257;23;20013;-88
2023/04/19 17:24:59;;;;;;;6.57;2.80;;;;;;;9.24;100.00;96262.97;6156753;23;20059;-88
2023/04/19 17:27:31;;;;;;;6.40;2.33;;;;;;;9.24;100.00;96262.97;6182086;23;20029;-87
2023/04/19 17:29:57;;;;;;;5.70;2.30;;;;;;;9.17;100.00;96263.56;6154500;23;20020;-88
2023/04/19 17:32:35;;;;;;;8.00;2.57;;;;;;;9.03;100.00;96264.09;6155740;23;20009;-87
2023/04/19 17:35:03;;;;;;;7.47;2.60;;;;;;;9.00;100.00;96267.00;6159700;23;20016;-84
2023/04/19 17:37:31;;;;;;;5.03;2.00;;;;;;;8.90;100.00;96261.81;6156507;23;20039;-86
2023/04/19 17:39:57;;;;;;;6.73;2.00;;;;;;;8.95;100.00;96267.47;6156578;23;20020;-87
2023/04/19 17:42:24;;;;;;;5.83;2.10;;;;;;;8.94;100.00;96270.22;6155678;23;20013;-85
2023/04/19 17:44:50;;;;;;;4.57;1.97;;;;;;;8.79;100.00;96275.16;6181144;23;20052;-86
2023/04/19 17:47:18;;;;;;;5.23;2.10;;;;;;;8.70;100.00;96266.34;6155822;23;20020;-86
2023/04/19 17:49:45;;;;;;;4.50;2.20;;;;;;;8.66;100.00;96262.38;6181166;23;20016;-86
2023/04/19 17:52:11;;;;;;;4.27;2.20;;;;;;;8.59;100.00;96269.19;6156410;23;20096;-86
2023/04/19 17:54:37;;;;;;;4.33;2.50;;;;;;;8.44;100.00;96268.00;6181092;23;20092;-86
2023/04/19 17:57:03;;;;;;;5.17;2.63;;;;;;;8.45;100.00;96262.63;6155483;23;20032;-86
2023/04/19 17:59:45;;;;;;;5.47;2.23;;;;;;;8.37;100.00;96272.16;6178233;23;20017;-86
2023/04/19 18:02:17;;;;;;;5.13;2.17;;;;;;;8.29;100.00;96270.25;6153902;23;20739;-86
2023/04/19 18:04:51;;;;;;;4.32;2.22;;;;;;;8.21;100.00;96276.19;6179155;23;20024;-86
2023/04/19 18:07:25;;;;;;;3.53;1.87;;;;;;;8.09;100.00;96272.13;6153891;23;20103;-86
2023/04/19 18:09:52;;;;;;;4.53;2.03;;;;;;;8.20;100.00;96271.94;6179335;23;20016;-86
2023/04/19 18:12:20;;;;;;;3.83;1.73;;;;;;;8.03;100.00;96277.94;6154739;23;20796;-86
2023/04/19 18:14:48;;;;;;;4.20;1.87;;;;;;;8.08;100.00;96277.50;6155733;23;20100;-86
2023/04/19 18:17:13;;;;;;;5.67;2.40;;;;;;;7.99;100.00;96274.75;6153627;23;20098;-86
2023/04/19 18:19:39;;;;;;;4.97;2.23;;;;;;;7.82;100.00;96279.91;6178700;23;20021;-86